<?xml version='1.0' encoding='UTF-8'?><gpx creator="YAMAP - https://yamap.com" xsi:schemaLocation="http://www.topografix.com/GPX/1/1 http://www.topografix.com/GPX/1/1/gpx.xsd" version="1.1" xmlns="http://www.topografix.com/GPX/1/1" xmlns:xsi="http://www.w3.org/2001/XMLSchema-instance">
<metadata><bounds maxlat="34.81298614546575" maxlon="134.15003863512825" minlat="34.79909486468128" minlon="134.14260428965207"/></metadata>
<trk>
<name>WAT2027 BEGINNER</name>
<number>1</number>
<trkseg>
<trkpt lat="34.81170821689877" lon="134.14274373213274"><ele>23.256618761457503</ele><time>2026-07-12T01:55:40Z</time></trkpt>
<trkpt lat="34.81189822697511" lon="134.14272413457505"><ele>26.662685805931687</ele><time>2026-07-12T01:55:50Z</time></trkpt>
<trkpt lat="34.81207567324573" lon="134.14267309909567"><ele>25.33033997192979</ele><time>2026-07-12T01:56:06Z</time></trkpt>
<trkpt lat="34.812259883363424" lon="134.14262586117988"><ele>25.645347424782813</ele><time>2026-07-12T01:56:33Z</time></trkpt>
<trkpt lat="34.81244445051812" lon="134.14260428965207"><ele>24.730205239728093</ele><time>2026-07-12T01:56:44Z</time></trkpt>
<trkpt lat="34.81263536489917" lon="134.14262837448743"><ele>26.794331011362374</ele><time>2026-07-12T01:56:55Z</time></trkpt>
<trkpt lat="34.812716188247705" lon="134.14282829168675"><ele>25.7891633361578</ele><time>2026-07-12T01:57:05Z</time></trkpt>
<trkpt lat="34.81278005573954" lon="134.14304721908982"><ele>27.048555468209088</ele><time>2026-07-12T01:57:16Z</time></trkpt>
<trkpt lat="34.81284702828637" lon="134.1432680580833"><ele>28.262771552428603</ele><time>2026-07-12T01:57:27Z</time></trkpt>
<trkpt lat="34.81288125776321" lon="134.1434868997753"><ele>27.73581157438457</ele><time>2026-07-12T01:57:36Z</time></trkpt>
<trkpt lat="34.81293535529961" lon="134.14371535551834"><ele>29.04700982104987</ele><time>2026-07-12T01:57:46Z</time></trkpt>
<trkpt lat="34.81298614546575" lon="134.1439293178386"><ele>28.1177773848176</ele><time>2026-07-12T01:57:56Z</time></trkpt>
<trkpt lat="34.81288571535648" lon="134.14412350125252"><ele>29.422093466855586</ele><time>2026-07-12T01:58:09Z</time></trkpt>
<trkpt lat="34.81269853393338" lon="134.14419783307983"><ele>28.465900637209415</ele><time>2026-07-12T01:58:18Z</time></trkpt>
<trkpt lat="34.81250986522476" lon="134.1442864262398"><ele>28.8000725293532</ele><time>2026-07-12T01:58:28Z</time></trkpt>
<trkpt lat="34.81232737553852" lon="134.14434468984192"><ele>28.15325792040676</ele><time>2026-07-12T01:58:38Z</time></trkpt>
<trkpt lat="34.812146098321925" lon="134.144419223809"><ele>26.658148963935673</ele><time>2026-07-12T01:58:47Z</time></trkpt>
<trkpt lat="34.811953577427346" lon="134.14449397497535"><ele>26.51695711631328</ele><time>2026-07-12T01:58:57Z</time></trkpt>
<trkpt lat="34.81176777306221" lon="134.14451693136297"><ele>26.893462523818016</ele><time>2026-07-12T01:59:06Z</time></trkpt>
<trkpt lat="34.811582066362575" lon="134.14456149796845"><ele>29.21091873664409</ele><time>2026-07-12T01:59:15Z</time></trkpt>
<trkpt lat="34.811396820485534" lon="134.144590993356"><ele>30.071149251423776</ele><time>2026-07-12T01:59:24Z</time></trkpt>
<trkpt lat="34.81119268273684" lon="134.14459234258945"><ele>30.199520722962916</ele><time>2026-07-12T01:59:34Z</time></trkpt>
<trkpt lat="34.81099445075213" lon="134.1445558460891"><ele>31.683160761371255</ele><time>2026-07-12T01:59:43Z</time></trkpt>
<trkpt lat="34.810820036517626" lon="134.14447497468345"><ele>32.356851529330015</ele><time>2026-07-12T01:59:52Z</time></trkpt>
<trkpt lat="34.810634367917814" lon="134.1444015353173"><ele>32.84084761701524</ele><time>2026-07-12T02:00:02Z</time></trkpt>
<trkpt lat="34.81045190271523" lon="134.14434097372717"><ele>32.887778603471816</ele><time>2026-07-12T02:00:11Z</time></trkpt>
<trkpt lat="34.81028134683973" lon="134.14425728694036"><ele>31.810017990879714</ele><time>2026-07-12T02:00:20Z</time></trkpt>
<trkpt lat="34.810118562724305" lon="134.14413911222726"><ele>30.594402451999485</ele><time>2026-07-12T02:00:30Z</time></trkpt>
<trkpt lat="34.8099744546867" lon="134.14400454343556"><ele>31.004217519424856</ele><time>2026-07-12T02:00:39Z</time></trkpt>
<trkpt lat="34.80984712835624" lon="134.1438392391859"><ele>29.85084235202521</ele><time>2026-07-12T02:00:49Z</time></trkpt>
<trkpt lat="34.80974056330002" lon="134.14365187280765"><ele>29.321789209730923</ele><time>2026-07-12T02:00:58Z</time></trkpt>
<trkpt lat="34.80963864324293" lon="134.14344580692708"><ele>28.869591233320534</ele><time>2026-07-12T02:01:07Z</time></trkpt>
<trkpt lat="34.80944132379559" lon="134.14349522275919"><ele>26.187969249673188</ele><time>2026-07-12T02:01:17Z</time></trkpt>
<trkpt lat="34.809257647169154" lon="134.14357421618752"><ele>26.707333417609334</ele><time>2026-07-12T02:01:26Z</time></trkpt>
<trkpt lat="34.809073189736594" lon="134.14364876046614"><ele>27.243220179341733</ele><time>2026-07-12T02:01:35Z</time></trkpt>
<trkpt lat="34.80888862082572" lon="134.1437121865865"><ele>25.85749290138483</ele><time>2026-07-12T02:01:44Z</time></trkpt>
<trkpt lat="34.80870183595452" lon="134.14376379894154"><ele>25.772560155950487</ele><time>2026-07-12T02:01:53Z</time></trkpt>
<trkpt lat="34.80851740132726" lon="134.14381170661142"><ele>26.0050379447639</ele><time>2026-07-12T02:02:02Z</time></trkpt>
<trkpt lat="34.80832060796308" lon="134.14385730230788"><ele>26.226033052429557</ele><time>2026-07-12T02:02:11Z</time></trkpt>
<trkpt lat="34.808128006453806" lon="134.1438933524273"><ele>26.557029441930354</ele><time>2026-07-12T02:02:20Z</time></trkpt>
<trkpt lat="34.80793523427775" lon="134.14392369790554"><ele>27.0094803115353</ele><time>2026-07-12T02:02:29Z</time></trkpt>
<trkpt lat="34.80774355045604" lon="134.1439456211342"><ele>26.793200162239373</ele><time>2026-07-12T02:02:38Z</time></trkpt>
<trkpt lat="34.807544869001624" lon="134.143970195929"><ele>26.138944965787232</ele><time>2026-07-12T02:02:47Z</time></trkpt>
<trkpt lat="34.80735627599456" lon="134.14398637963183"><ele>25.236732968129218</ele><time>2026-07-12T02:02:56Z</time></trkpt>
<trkpt lat="34.807160558010274" lon="134.14401021258266"><ele>25.46448298264295</ele><time>2026-07-12T02:03:05Z</time></trkpt>
<trkpt lat="34.80696557969783" lon="134.1440277623228"><ele>25.352161983028054</ele><time>2026-07-12T02:03:14Z</time></trkpt>
<trkpt lat="34.80677066234148" lon="134.14405670663442"><ele>25.75546886678785</ele><time>2026-07-12T02:03:23Z</time></trkpt>
<trkpt lat="34.80658375763901" lon="134.14407826047284"><ele>25.852449597790837</ele><time>2026-07-12T02:03:32Z</time></trkpt>
<trkpt lat="34.80639659948444" lon="134.14410413110164"><ele>26.06851662043482</ele><time>2026-07-12T02:03:41Z</time></trkpt>
<trkpt lat="34.80620905947601" lon="134.14412582747968"><ele>26.474453969858587</ele><time>2026-07-12T02:03:50Z</time></trkpt>
<trkpt lat="34.806012990039015" lon="134.1441372597917"><ele>25.065484492108226</ele><time>2026-07-12T02:04:00Z</time></trkpt>
<trkpt lat="34.80581397800986" lon="134.14416441959924"><ele>24.566329337656498</ele><time>2026-07-12T02:04:09Z</time></trkpt>
<trkpt lat="34.805625156156104" lon="134.14418668169708"><ele>24.00172621756792</ele><time>2026-07-12T02:04:18Z</time></trkpt>
<trkpt lat="34.80546981936527" lon="134.1443212247463"><ele>22.400312486104667</ele><time>2026-07-12T02:04:29Z</time></trkpt>
<trkpt lat="34.80547503073268" lon="134.14455491118403"><ele>24.037042705342174</ele><time>2026-07-12T02:04:38Z</time></trkpt>
<trkpt lat="34.80547497886374" lon="134.14479588510412"><ele>25.91268732212484</ele><time>2026-07-12T02:04:47Z</time></trkpt>
<trkpt lat="34.80547073498435" lon="134.14501698168368"><ele>25.957889603450894</ele><time>2026-07-12T02:05:13Z</time></trkpt>
<trkpt lat="34.80548395009414" lon="134.1452415378427"><ele>25.746182185597718</ele><time>2026-07-12T02:05:28Z</time></trkpt>
<trkpt lat="34.805475985393606" lon="134.14546525786804"><ele>25.60127658955753</ele><time>2026-07-12T02:05:42Z</time></trkpt>
<trkpt lat="34.80535517572857" lon="134.14564205776077"><ele>25.998455363325775</ele><time>2026-07-12T02:06:02Z</time></trkpt>
<trkpt lat="34.80522718203315" lon="134.14581379025287"><ele>31.107354222796857</ele><time>2026-07-12T02:06:45Z</time></trkpt>
<trkpt lat="34.805339641100716" lon="134.14598506046323"><ele>44.39115032553673</ele><time>2026-07-12T02:07:26Z</time></trkpt>
<trkpt lat="34.805462699208704" lon="134.14615971362832"><ele>55.67800347507</ele><time>2026-07-12T02:08:48Z</time></trkpt>
<trkpt lat="34.8052841443571" lon="134.14620074698308"><ele>59.11499345116317</ele><time>2026-07-12T02:09:10Z</time></trkpt>
<trkpt lat="34.80546231371228" lon="134.14624004649994"><ele>64.38206991367042</ele><time>2026-07-12T02:09:45Z</time></trkpt>
<trkpt lat="34.805441268104765" lon="134.14647163355556"><ele>75.29976685903966</ele><time>2026-07-12T02:10:44Z</time></trkpt>
<trkpt lat="34.80527831499335" lon="134.14657502103134"><ele>81.82936443481594</ele><time>2026-07-12T02:11:11Z</time></trkpt>
<trkpt lat="34.80532472707784" lon="134.14678687857003"><ele>94.71020500455052</ele><time>2026-07-12T02:12:00Z</time></trkpt>
<trkpt lat="34.80517454119822" lon="134.146914475869"><ele>104.3705625841394</ele><time>2026-07-12T02:12:54Z</time></trkpt>
<trkpt lat="34.80504247556854" lon="134.14707402039645"><ele>122.54777362197638</ele><time>2026-07-12T02:13:52Z</time></trkpt>
<trkpt lat="34.80486286832607" lon="134.14713910944425"><ele>125.54248919989914</ele><time>2026-07-12T02:14:45Z</time></trkpt>
<trkpt lat="34.804670508695565" lon="134.14715955000273"><ele>129.31055320240557</ele><time>2026-07-12T02:15:02Z</time></trkpt>
<trkpt lat="34.80448773438975" lon="134.14721112442876"><ele>128.76026995573193</ele><time>2026-07-12T02:15:25Z</time></trkpt>
<trkpt lat="34.804342532999456" lon="134.1473451040536"><ele>126.14475268684328</ele><time>2026-07-12T02:15:36Z</time></trkpt>
<trkpt lat="34.80422324015001" lon="134.14751904760976"><ele>127.25198293477297</ele><time>2026-07-12T02:15:48Z</time></trkpt>
<trkpt lat="34.80406311121782" lon="134.14762758422825"><ele>134.7775674276054</ele><time>2026-07-12T02:16:17Z</time></trkpt>
<trkpt lat="34.803879619363684" lon="134.14767672147306"><ele>136.76861750800163</ele><time>2026-07-12T02:17:09Z</time></trkpt>
<trkpt lat="34.80369018343593" lon="134.14762670732443"><ele>132.48289974592626</ele><time>2026-07-12T02:17:29Z</time></trkpt>
<trkpt lat="34.80349843402764" lon="134.14755819225968"><ele>125.04940253775567</ele><time>2026-07-12T02:17:43Z</time></trkpt>
<trkpt lat="34.80331568651801" lon="134.1475640216605"><ele>124.14255238138139</ele><time>2026-07-12T02:17:52Z</time></trkpt>
<trkpt lat="34.80316370361413" lon="134.1477250450669"><ele>123.85786110628396</ele><time>2026-07-12T02:18:02Z</time></trkpt>
<trkpt lat="34.80302187119443" lon="134.14787347060945"><ele>127.07506897114217</ele><time>2026-07-12T02:18:12Z</time></trkpt>
<trkpt lat="34.80285605188653" lon="134.14797384457432"><ele>134.27133715339005</ele><time>2026-07-12T02:18:39Z</time></trkpt>
<trkpt lat="34.80267818451211" lon="134.1479367514126"><ele>142.85279878787696</ele><time>2026-07-12T02:19:15Z</time></trkpt>
<trkpt lat="34.80249228463456" lon="134.1478847197431"><ele>146.65418428368866</ele><time>2026-07-12T02:19:39Z</time></trkpt>
<trkpt lat="34.80229628368449" lon="134.14784766948236"><ele>143.21324613597244</ele><time>2026-07-12T02:19:52Z</time></trkpt>
<trkpt lat="34.802128114989195" lon="134.14793282736596"><ele>138.77674934454262</ele><time>2026-07-12T02:20:11Z</time></trkpt>
<trkpt lat="34.802011671184864" lon="134.14810901383876"><ele>136.82214086689055</ele><time>2026-07-12T02:20:22Z</time></trkpt>
<trkpt lat="34.80190750710903" lon="134.148289748311"><ele>141.82674950361252</ele><time>2026-07-12T02:20:33Z</time></trkpt>
<trkpt lat="34.801803880632775" lon="134.14847270545746"><ele>146.8968067103997</ele><time>2026-07-12T02:20:48Z</time></trkpt>
<trkpt lat="34.80169513688054" lon="134.1486591658731"><ele>148.53560647927225</ele><time>2026-07-12T02:21:09Z</time></trkpt>
<trkpt lat="34.80161857949263" lon="134.14886002059387"><ele>153.42649463936687</ele><time>2026-07-12T02:21:30Z</time></trkpt>
<trkpt lat="34.80156097407532" lon="134.14907115515456"><ele>159.2262227702886</ele><time>2026-07-12T02:22:04Z</time></trkpt>
<trkpt lat="34.80152618910576" lon="134.14929135786426"><ele>168.93315847031772</ele><time>2026-07-12T02:22:49Z</time></trkpt>
<trkpt lat="34.80143433214286" lon="134.14947974036932"><ele>171.43798318412155</ele><time>2026-07-12T02:23:18Z</time></trkpt>
<trkpt lat="34.80128867711853" lon="134.14962113576857"><ele>168.20161606930196</ele><time>2026-07-12T02:24:11Z</time></trkpt>
<trkpt lat="34.8011051847683" lon="134.14962041947607"><ele>163.2536306940019</ele><time>2026-07-12T02:24:33Z</time></trkpt>
<trkpt lat="34.8009440375084" lon="134.14972307596747"><ele>150.25822263676673</ele><time>2026-07-12T02:25:25Z</time></trkpt>
<trkpt lat="34.80078539323258" lon="134.14982726409394"><ele>139.68622766435146</ele><time>2026-07-12T02:25:50Z</time></trkpt>
<trkpt lat="34.80061086123107" lon="134.14991006320827"><ele>132.38961915206164</ele><time>2026-07-12T02:26:10Z</time></trkpt>
<trkpt lat="34.80045492745649" lon="134.15003863512825"><ele>126.61184456385672</ele><time>2026-07-12T02:26:28Z</time></trkpt>
<trkpt lat="34.800275327825254" lon="134.1500001897796"><ele>123.42126922030002</ele><time>2026-07-12T02:26:42Z</time></trkpt>
<trkpt lat="34.80026782760469" lon="134.1497736550999"><ele>116.3572906171903</ele><time>2026-07-12T02:26:58Z</time></trkpt>
<trkpt lat="34.800319556588434" lon="134.14956245037948"><ele>105.79157387372106</ele><time>2026-07-12T02:27:31Z</time></trkpt>
<trkpt lat="34.80043499359382" lon="134.14939452006965"><ele>101.50158014986664</ele><time>2026-07-12T02:27:51Z</time></trkpt>
<trkpt lat="34.80036945954564" lon="134.1491816181231"><ele>92.11405732762069</ele><time>2026-07-12T02:28:16Z</time></trkpt>
<trkpt lat="34.800280776682435" lon="134.1489789192772"><ele>81.19418216869235</ele><time>2026-07-12T02:28:41Z</time></trkpt>
<trkpt lat="34.80024951160622" lon="134.1487564782123"><ele>71.1967193512246</ele><time>2026-07-12T02:29:03Z</time></trkpt>
<trkpt lat="34.800089249992645" lon="134.14863382459833"><ele>58.715786813758314</ele><time>2026-07-12T02:29:35Z</time></trkpt>
<trkpt lat="34.799949093647925" lon="134.1484846089883"><ele>46.87086487095803</ele><time>2026-07-12T02:30:02Z</time></trkpt>
<trkpt lat="34.799944398631965" lon="134.14826604531837"><ele>41.38146927393973</ele><time>2026-07-12T02:30:21Z</time></trkpt>
<trkpt lat="34.79976490313442" lon="134.14836586265747"><ele>33.754763122648</ele><time>2026-07-12T02:30:48Z</time></trkpt>
<trkpt lat="34.79960830205241" lon="134.14847575253836"><ele>29.14068965613842</ele><time>2026-07-12T02:31:02Z</time></trkpt>
<trkpt lat="34.79943364241683" lon="134.14841726672248"><ele>26.336063510738313</ele><time>2026-07-12T02:31:14Z</time></trkpt>
<trkpt lat="34.79926629748556" lon="134.14832899975818"><ele>25.066447536461055</ele><time>2026-07-12T02:31:35Z</time></trkpt>
<trkpt lat="34.79909486468128" lon="134.14825874326255"><ele>23.55352650769055</ele><time>2026-07-12T02:31:52Z</time></trkpt>
<trkpt lat="34.799111117031075" lon="134.14803626194728"><ele>24.556977467611432</ele><time>2026-07-12T02:32:02Z</time></trkpt>
<trkpt lat="34.7991249131367" lon="134.14781118075987"><ele>24.830534419976175</ele><time>2026-07-12T02:32:11Z</time></trkpt>
<trkpt lat="34.79914700749934" lon="134.14757951735427"><ele>24.122622838243842</ele><time>2026-07-12T02:32:21Z</time></trkpt>
<trkpt lat="34.7991691617234" lon="134.14735360457226"><ele>24.0839180406183</ele><time>2026-07-12T02:32:32Z</time></trkpt>
<trkpt lat="34.79918566106974" lon="134.14712822464577"><ele>25.085807986557484</ele><time>2026-07-12T02:32:42Z</time></trkpt>
<trkpt lat="34.79920151982596" lon="134.1468925350362"><ele>25.622288543730974</ele><time>2026-07-12T02:32:52Z</time></trkpt>
<trkpt lat="34.799216918102786" lon="134.14666972244723"><ele>25.984761375933886</ele><time>2026-07-12T02:33:02Z</time></trkpt>
<trkpt lat="34.79923552130291" lon="134.14644338821276"><ele>25.736109172925353</ele><time>2026-07-12T02:33:12Z</time></trkpt>
<trkpt lat="34.79926947653401" lon="134.14621442104178"><ele>24.341873731464148</ele><time>2026-07-12T02:33:22Z</time></trkpt>
<trkpt lat="34.7992918976268" lon="134.14599421098455"><ele>25.9613753054291</ele><time>2026-07-12T02:33:32Z</time></trkpt>
<trkpt lat="34.79930939008656" lon="134.14576657615586"><ele>25.35350925475359</ele><time>2026-07-12T02:33:42Z</time></trkpt>
<trkpt lat="34.79932292745709" lon="134.14554139098516"><ele>26.807845652103424</ele><time>2026-07-12T02:33:52Z</time></trkpt>
<trkpt lat="34.799349073701435" lon="134.1453113917581"><ele>26.08800280187279</ele><time>2026-07-12T02:34:02Z</time></trkpt>
<trkpt lat="34.79937028663129" lon="134.14508565217133"><ele>25.977071007713675</ele><time>2026-07-12T02:34:12Z</time></trkpt>
<trkpt lat="34.79939019640565" lon="134.14484865183613"><ele>25.837406990118325</ele><time>2026-07-12T02:34:22Z</time></trkpt>
<trkpt lat="34.799574968449775" lon="134.1448128615047"><ele>24.151675815694034</ele><time>2026-07-12T02:34:31Z</time></trkpt>
<trkpt lat="34.79976322426455" lon="134.1448045526805"><ele>24.13020641170442</ele><time>2026-07-12T02:34:40Z</time></trkpt>
<trkpt lat="34.799959501934644" lon="134.1447751960603"><ele>23.611370965838432</ele><time>2026-07-12T02:34:50Z</time></trkpt>
<trkpt lat="34.80015256524636" lon="134.144749848551"><ele>23.522203819826245</ele><time>2026-07-12T02:35:00Z</time></trkpt>
<trkpt lat="34.80034870979015" lon="134.1447162585244"><ele>23.500739802606404</ele><time>2026-07-12T02:35:10Z</time></trkpt>
<trkpt lat="34.80053091322354" lon="134.14469420969615"><ele>23.710372579284012</ele><time>2026-07-12T02:35:19Z</time></trkpt>
<trkpt lat="34.80071454629796" lon="134.14467059523483"><ele>23.582747201435268</ele><time>2026-07-12T02:35:28Z</time></trkpt>
<trkpt lat="34.80089787598641" lon="134.14463671374773"><ele>23.627983727492392</ele><time>2026-07-12T02:35:37Z</time></trkpt>
<trkpt lat="34.80108987108639" lon="134.1446138054343"><ele>24.064644661732018</ele><time>2026-07-12T02:35:46Z</time></trkpt>
<trkpt lat="34.801275231435724" lon="134.1445822644005"><ele>23.879655610769987</ele><time>2026-07-12T02:35:55Z</time></trkpt>
<trkpt lat="34.80145683009674" lon="134.14457133354588"><ele>23.2468719240278</ele><time>2026-07-12T02:36:04Z</time></trkpt>
<trkpt lat="34.80164633272699" lon="134.14457609306328"><ele>23.273993585258722</ele><time>2026-07-12T02:36:13Z</time></trkpt>
<trkpt lat="34.801835560778656" lon="134.1445776846822"><ele>24.465876379981637</ele><time>2026-07-12T02:36:22Z</time></trkpt>
<trkpt lat="34.8020207548562" lon="134.14456420821097"><ele>25.6143665779382</ele><time>2026-07-12T02:36:31Z</time></trkpt>
<trkpt lat="34.80220997275269" lon="134.14453223106779"><ele>25.239832255989313</ele><time>2026-07-12T02:36:40Z</time></trkpt>
<trkpt lat="34.80239972278965" lon="134.14451547206704"><ele>25.256163388490677</ele><time>2026-07-12T02:36:49Z</time></trkpt>
<trkpt lat="34.802585425610715" lon="134.14449861735605"><ele>24.949360919184983</ele><time>2026-07-12T02:36:58Z</time></trkpt>
<trkpt lat="34.80277618065006" lon="134.14449445187114"><ele>25.262735621072352</ele><time>2026-07-12T02:37:07Z</time></trkpt>
<trkpt lat="34.80296585966012" lon="134.1444799346885"><ele>25.19044331368059</ele><time>2026-07-12T02:37:16Z</time></trkpt>
<trkpt lat="34.803151013440946" lon="134.14446334867168"><ele>24.228787656873465</ele><time>2026-07-12T02:37:25Z</time></trkpt>
<trkpt lat="34.80333964434136" lon="134.1444489488103"><ele>24.454286873340607</ele><time>2026-07-12T02:37:34Z</time></trkpt>
<trkpt lat="34.80352492141688" lon="134.14442556476294"><ele>25.209973537363112</ele><time>2026-07-12T02:37:43Z</time></trkpt>
<trkpt lat="34.80371671826823" lon="134.14440236588268"><ele>25.715562039986253</ele><time>2026-07-12T02:37:52Z</time></trkpt>
<trkpt lat="34.80389738790473" lon="134.14436662028683"><ele>25.418243857100606</ele><time>2026-07-12T02:38:01Z</time></trkpt>
<trkpt lat="34.80408598736152" lon="134.144334378448"><ele>25.412419737316668</ele><time>2026-07-12T02:38:10Z</time></trkpt>
<trkpt lat="34.80428194799092" lon="134.1443113021731"><ele>25.01894084457308</ele><time>2026-07-12T02:38:19Z</time></trkpt>
<trkpt lat="34.80446973233774" lon="134.14429075073807"><ele>24.450848462060094</ele><time>2026-07-12T02:38:28Z</time></trkpt>
<trkpt lat="34.804662715997615" lon="134.14427479212145"><ele>24.72879966069013</ele><time>2026-07-12T02:38:37Z</time></trkpt>
<trkpt lat="34.804860791298815" lon="134.1442498983728"><ele>25.45596163906157</ele><time>2026-07-12T02:38:46Z</time></trkpt>
<trkpt lat="34.80504586032867" lon="134.14423646834595"><ele>24.84311716724187</ele><time>2026-07-12T02:38:55Z</time></trkpt>
<trkpt lat="34.80523730869814" lon="134.1442138442893"><ele>24.49029866605997</ele><time>2026-07-12T02:39:04Z</time></trkpt>
<trkpt lat="34.80543179254343" lon="134.1441970331014"><ele>24.347010954283178</ele><time>2026-07-12T02:39:13Z</time></trkpt>
<trkpt lat="34.805620570242134" lon="134.1441680321897"><ele>24.700845618732274</ele><time>2026-07-12T02:39:22Z</time></trkpt>
<trkpt lat="34.80580937640124" lon="134.14414070785267"><ele>25.97932575829327</ele><time>2026-07-12T02:39:31Z</time></trkpt>
<trkpt lat="34.805992235437635" lon="134.14412673674533"><ele>25.458997214213014</ele><time>2026-07-12T02:39:40Z</time></trkpt>
<trkpt lat="34.80618378028459" lon="134.1441124426563"><ele>26.320152536034584</ele><time>2026-07-12T02:39:49Z</time></trkpt>
<trkpt lat="34.80636530460955" lon="134.14408777181953"><ele>26.894645791500807</ele><time>2026-07-12T02:39:58Z</time></trkpt>
<trkpt lat="34.80655996283243" lon="134.14405994825933"><ele>26.537555193528533</ele><time>2026-07-12T02:40:08Z</time></trkpt>
<trkpt lat="34.806746521195485" lon="134.1440377749334"><ele>27.408425492234528</ele><time>2026-07-12T02:40:17Z</time></trkpt>
<trkpt lat="34.80693255366204" lon="134.14401175402176"><ele>27.741016862913966</ele><time>2026-07-12T02:40:26Z</time></trkpt>
<trkpt lat="34.80712113241414" lon="134.14398943770667"><ele>26.153688565827906</ele><time>2026-07-12T02:40:35Z</time></trkpt>
<trkpt lat="34.807309172328175" lon="134.14396677885682"><ele>25.339327679015696</ele><time>2026-07-12T02:40:44Z</time></trkpt>
<trkpt lat="34.80750255630559" lon="134.14394145104316"><ele>25.12592993211001</ele><time>2026-07-12T02:40:53Z</time></trkpt>
<trkpt lat="34.80768938287141" lon="134.14392307525867"><ele>25.784388621337712</ele><time>2026-07-12T02:41:02Z</time></trkpt>
<trkpt lat="34.80787921989146" lon="134.1438969460763"><ele>26.582859027199447</ele><time>2026-07-12T02:41:11Z</time></trkpt>
<trkpt lat="34.80806969533962" lon="134.14387623605262"><ele>27.61457498650998</ele><time>2026-07-12T02:41:20Z</time></trkpt>
<trkpt lat="34.80826170302461" lon="134.1438423479055"><ele>28.29458997491747</ele><time>2026-07-12T02:41:29Z</time></trkpt>
<trkpt lat="34.80844374138353" lon="134.1438050016637"><ele>28.128954424522817</ele><time>2026-07-12T02:41:38Z</time></trkpt>
<trkpt lat="34.808630687620564" lon="134.14376499097168"><ele>28.238014849834144</ele><time>2026-07-12T02:41:47Z</time></trkpt>
<trkpt lat="34.80880706931289" lon="134.14371303239577"><ele>27.54410445317626</ele><time>2026-07-12T02:41:56Z</time></trkpt>
<trkpt lat="34.80898822705892" lon="134.1436582902051"><ele>28.475787044502795</ele><time>2026-07-12T02:42:05Z</time></trkpt>
<trkpt lat="34.80916574441217" lon="134.1436015535998"><ele>28.566027105785906</ele><time>2026-07-12T02:42:14Z</time></trkpt>
<trkpt lat="34.80935518809747" lon="134.14352624073027"><ele>28.694957482628524</ele><time>2026-07-12T02:42:24Z</time></trkpt>
<trkpt lat="34.80954203496414" lon="134.1434384097274"><ele>29.000097369775176</ele><time>2026-07-12T02:42:34Z</time></trkpt>
<trkpt lat="34.80971930871455" lon="134.1433555357108"><ele>29.677422715350986</ele><time>2026-07-12T02:42:43Z</time></trkpt>
<trkpt lat="34.809906722135786" lon="134.14328143508814"><ele>29.820839169435203</ele><time>2026-07-12T02:42:52Z</time></trkpt>
<trkpt lat="34.81009048770063" lon="134.143195929412"><ele>29.860573035664856</ele><time>2026-07-12T02:43:01Z</time></trkpt>
<trkpt lat="34.81027246109495" lon="134.14310611494608"><ele>29.11468279082328</ele><time>2026-07-12T02:43:10Z</time></trkpt>
<trkpt lat="34.81044861388724" lon="134.14301177482778"><ele>27.97199502494186</ele><time>2026-07-12T02:43:19Z</time></trkpt>
<trkpt lat="34.81063989705674" lon="134.14291706944428"><ele>28.42072091344744</ele><time>2026-07-12T02:43:28Z</time></trkpt>
<trkpt lat="34.810820644486896" lon="134.14283537439056"><ele>27.923133705742657</ele><time>2026-07-12T02:43:37Z</time></trkpt>
<trkpt lat="34.81100015582913" lon="134.1427604837065"><ele>28.25910081807524</ele><time>2026-07-12T02:43:46Z</time></trkpt>
<trkpt lat="34.811189729087886" lon="134.14270904020717"><ele>29.1612481251359</ele><time>2026-07-12T02:43:55Z</time></trkpt>
<trkpt lat="34.8113638383597" lon="134.1427901998762"><ele>28.517108200117946</ele><time>2026-07-12T02:44:04Z</time></trkpt>
<trkpt lat="34.81155663987669" lon="134.14279569332697"><ele>28.320795263163745</ele><time>2026-07-12T02:44:13Z</time></trkpt>
<trkpt lat="34.81160004611648" lon="134.1430161961646"><ele>26.678616631776094</ele><time>2026-07-12T02:44:23Z</time></trkpt>
<trkpt lat="34.81164470014257" lon="134.1433294464618"><ele>24.07209195289761</ele><time>2026-07-12T02:44:38Z</time></trkpt>
<trkpt lat="34.811534743260374" lon="134.14314547296502"><ele>21.601670294068754</ele><time>2026-07-12T02:44:53Z</time></trkpt>
</trkseg></trk></gpx>